sensor_id;sensor_type;location;lat;lon;timestamp;P1;durP1;ratioP1;P2;durP2;ratioP2
51866;SDS011;52862;52.504;13.480;2022-12-05T00:01:32;258.47;;;69.50;;
51866;SDS011;52862;52.504;13.480;2022-12-05T00:04:02;267.70;;;68.07;;
51866;SDS011;52862;52.504;13.480;2022-12-05T00:06:31;294.00;;;69.10;;
51866;SDS011;52862;52.504;13.480;2022-12-05T00:08:59;256.97;;;65.30;;
51866;SDS011;52862;52.504;13.480;2022-12-05T00:11:31;261.33;;;66.00;;
51866;SDS011;52862;52.504;13.480;2022-12-05T00:14:00;264.87;;;63.73;;
51866;SDS011;52862;52.504;13.480;2022-12-05T00:16:28;280.90;;;66.13;;
51866;SDS011;52862;52.504;13.480;2022-12-05T00:18:58;272.57;;;67.00;;
51866;SDS011;52862;52.504;13.480;2022-12-05T00:21:26;264.17;;;68.20;;
51866;SDS011;52862;52.504;13.480;2022-12-05T00:23:54;272.50;;;68.80;;
51866;SDS011;52862;52.504;13.480;2022-12-05T00:26:21;269.63;;;64.70;;
51866;SDS011;52862;52.504;13.480;2022-12-05T00:28:49;276.47;;;67.63;;
51866;SDS011;52862;52.504;13.480;2022-12-05T00:31:17;249.03;;;69.53;;
51866;SDS011;52862;52.504;13.480;2022-12-05T00:33:45;281.57;;;69.60;;
51866;SDS011;52862;52.504;13.480;2022-12-05T00:36:14;275.20;;;68.20;;
51866;SDS011;52862;52.504;13.480;2022-12-05T00:38:42;258.37;;;64.70;;
51866;SDS011;52862;52.504;13.480;2022-12-05T00:41:12;269.47;;;67.63;;
51866;SDS011;52862;52.504;13.480;2022-12-05T00:43:40;266.47;;;67.70;;
51866;SDS011;52862;52.504;13.480;2022-12-05T00:46:09;290.17;;;67.20;;
51866;SDS011;52862;52.504;13.480;2022-12-05T00:48:37;280.80;;;69.33;;
51866;SDS011;52862;52.504;13.480;2022-12-05T00:51:05;281.40;;;68.93;;
51866;SDS011;52862;52.504;13.480;2022-12-05T00:53:34;278.37;;;69.30;;
51866;SDS011;52862;52.504;13.480;2022-12-05T00:56:01;258.93;;;68.87;;
51866;SDS011;52862;52.504;13.480;2022-12-05T00:58:29;260.20;;;67.43;;
51866;SDS011;52862;52.504;13.480;2022-12-05T01:00:56;264.93;;;68.03;;
51866;SDS011;52862;52.504;13.480;2022-12-05T01:03:24;273.90;;;69.43;;
51866;SDS011;52862;52.504;13.480;2022-12-05T01:05:51;258.97;;;65.63;;
51866;SDS011;52862;52.504;13.480;2022-12-05T01:08:18;262.20;;;66.27;;
51866;SDS011;52862;52.504;13.480;2022-12-05T01:10:51;253.43;;;66.90;;
51866;SDS011;52862;52.504;13.480;2022-12-05T01:13:18;255.07;;;69.53;;
51866;SDS011;52862;52.504;13.480;2022-12-05T01:15:45;258.33;;;68.10;;
51866;SDS011;52862;52.504;13.480;2022-12-05T01:18:12;237.67;;;65.17;;
51866;SDS011;52862;52.504;13.480;2022-12-05T01:20:40;260.97;;;66.10;;
51866;SDS011;52862;52.504;13.480;2022-12-05T01:23:07;266.83;;;65.27;;
51866;SDS011;52862;52.504;13.480;2022-12-05T01:25:34;260.40;;;66.03;;
51866;SDS011;52862;52.504;13.480;2022-12-05T01:28:01;262.23;;;65.83;;
51866;SDS011;52862;52.504;13.480;2022-12-05T01:30:28;253.33;;;66.13;;
51866;SDS011;52862;52.504;13.480;2022-12-05T01:32:55;267.20;;;65.80;;
51866;SDS011;52862;52.504;13.480;2022-12-05T01:35:21;259.40;;;66.50;;
51866;SDS011;52862;52.504;13.480;2022-12-05T01:37:49;253.07;;;65.50;;
51866;SDS011;52862;52.504;13.480;2022-12-05T01:40:16;242.80;;;65.10;;
51866;SDS011;52862;52.504;13.480;2022-12-05T01:42:43;285.97;;;69.33;;
51866;SDS011;52862;52.504;13.480;2022-12-05T01:45:13;245.77;;;66.07;;
51866;SDS011;52862;52.504;13.480;2022-12-05T01:47:41;252.03;;;63.80;;
51866;SDS011;52862;52.504;13.480;2022-12-05T01:50:10;233.40;;;65.03;;
51866;SDS011;52862;52.504;13.480;2022-12-05T01:52:38;245.40;;;60.90;;
51866;SDS011;52862;52.504;13.480;2022-12-05T01:55:07;243.40;;;64.73;;
51866;SDS011;52862;52.504;13.480;2022-12-05T01:57:36;242.57;;;64.70;;
51866;SDS011;52862;52.504;13.480;2022-12-05T02:00:05;265.23;;;67.87;;
51866;SDS011;52862;52.504;13.480;2022-12-05T02:02:35;267.57;;;64.77;;
51866;SDS011;52862;52.504;13.480;2022-12-05T02:05:04;241.70;;;64.47;;
51866;SDS011;52862;52.504;13.480;2022-12-05T02:07:33;252.70;;;65.67;;
51866;SDS011;52862;52.504;13.480;2022-12-05T02:10:03;242.60;;;65.27;;
51866;SDS011;52862;52.504;13.480;2022-12-05T02:12:32;246.43;;;63.10;;
51866;SDS011;52862;52.504;13.480;2022-12-05T02:15:05;248.67;;;65.20;;
51866;SDS011;52862;52.504;13.480;2022-12-05T02:17:45;221.80;;;60.20;;
51866;SDS011;52862;52.504;13.480;2022-12-05T02:20:22;243.10;;;64.23;;
51866;SDS011;52862;52.504;13.480;2022-12-05T02:31:46;255.90;;;62.93;;
51866;SDS011;52862;52.504;13.480;2022-12-05T02:34:19;251.50;;;62.83;;
51866;SDS011;52862;52.504;13.480;2022-12-05T02:36:52;239.17;;;65.20;;
51866;SDS011;52862;52.504;13.480;2022-12-05T02:39:25;259.67;;;64.80;;
51866;SDS011;52862;52.504;13.480;2022-12-05T02:42:01;246.40;;;65.27;;
51866;SDS011;52862;52.504;13.480;2022-12-05T02:44:34;220.93;;;61.10;;
51866;SDS011;52862;52.504;13.480;2022-12-05T02:47:06;268.23;;;65.87;;
51866;SDS011;52862;52.504;13.480;2022-12-05T02:49:37;246.90;;;62.97;;
51866;SDS011;52862;52.504;13.480;2022-12-05T02:52:09;255.13;;;64.13;;
51866;SDS011;52862;52.504;13.480;2022-12-05T02:54:40;247.80;;;63.57;;
51866;SDS011;52862;52.504;13.480;2022-12-05T02:57:09;238.27;;;61.50;;
51866;SDS011;52862;52.504;13.480;2022-12-05T02:59:38;225.03;;;59.37;;
51866;SDS011;52862;52.504;13.480;2022-12-05T03:02:07;246.43;;;60.23;;
51866;SDS011;52862;52.504;13.480;2022-12-05T03:04:46;226.00;;;59.93;;
51866;SDS011;52862;52.504;13.480;2022-12-05T03:07:13;241.97;;;61.17;;
51866;SDS011;52862;52.504;13.480;2022-12-05T03:09:42;234.83;;;60.57;;
51866;SDS011;52862;52.504;13.480;2022-12-05T03:12:13;207.77;;;56.17;;
51866;SDS011;52862;52.504;13.480;2022-12-05T03:14:44;213.37;;;58.10;;
51866;SDS011;52862;52.504;13.480;2022-12-05T03:17:15;213.80;;;58.93;;
51866;SDS011;52862;52.504;13.480;2022-12-05T03:19:47;214.37;;;57.67;;
51866;SDS011;52862;52.504;13.480;2022-12-05T03:22:22;232.83;;;57.83;;
51866;SDS011;52862;52.504;13.480;2022-12-05T03:24:55;213.33;;;57.17;;
51866;SDS011;52862;52.504;13.480;2022-12-05T03:27:24;181.03;;;53.03;;
51866;SDS011;52862;52.504;13.480;2022-12-05T03:29:55;196.70;;;54.57;;
51866;SDS011;52862;52.504;13.480;2022-12-05T03:32:28;175.60;;;52.47;;
51866;SDS011;52862;52.504;13.480;2022-12-05T03:35:03;169.93;;;49.60;;
51866;SDS011;52862;52.504;13.480;2022-12-05T03:37:37;185.73;;;50.03;;
51866;SDS011;52862;52.504;13.480;2022-12-05T03:40:10;176.17;;;49.00;;
51866;SDS011;52862;52.504;13.480;2022-12-05T03:42:48;177.47;;;48.83;;
51866;SDS011;52862;52.504;13.480;2022-12-05T03:45:21;162.13;;;47.63;;
51866;SDS011;52862;52.504;13.480;2022-12-05T03:47:55;168.23;;;49.70;;
51866;SDS011;52862;52.504;13.480;2022-12-05T03:50:27;168.93;;;50.73;;
51866;SDS011;52862;52.504;13.480;2022-12-05T03:52:55;160.00;;;48.37;;
51866;SDS011;52862;52.504;13.480;2022-12-05T03:55:45;164.27;;;49.40;;
51866;SDS011;52862;52.504;13.480;2022-12-05T03:58:19;184.50;;;53.37;;
51866;SDS011;52862;52.504;13.480;2022-12-05T04:00:51;151.03;;;47.00;;
51866;SDS011;52862;52.504;13.480;2022-12-05T04:03:23;158.37;;;48.80;;
51866;SDS011;52862;52.504;13.480;2022-12-05T04:06:03;164.53;;;48.97;;
51866;SDS011;52862;52.504;13.480;2022-12-05T04:08:39;172.33;;;48.23;;
51866;SDS011;52862;52.504;13.480;2022-12-05T04:11:11;178.80;;;49.53;;
51866;SDS011;52862;52.504;13.480;2022-12-05T04:13:41;174.80;;;50.30;;
51866;SDS011;52862;52.504;13.480;2022-12-05T04:16:11;165.63;;;49.63;;
51866;SDS011;52862;52.504;13.480;2022-12-05T04:19:03;169.83;;;46.93;;
51866;SDS011;52862;52.504;13.480;2022-12-05T04:21:36;190.17;;;49.13;;
51866;SDS011;52862;52.504;13.480;2022-12-05T04:24:09;148.07;;;45.97;;
51866;SDS011;52862;52.504;13.480;2022-12-05T04:27:04;165.80;;;47.30;;
51866;SDS011;52862;52.504;13.480;2022-12-05T04:29:36;167.90;;;48.57;;
51866;SDS011;52862;52.504;13.480;2022-12-05T04:32:09;163.40;;;46.33;;
51866;SDS011;52862;52.504;13.480;2022-12-05T04:34:39;153.50;;;45.20;;
51866;SDS011;52862;52.504;13.480;2022-12-05T04:37:11;144.73;;;46.23;;
51866;SDS011;52862;52.504;13.480;2022-12-05T04:39:43;150.17;;;45.77;;
51866;SDS011;52862;52.504;13.480;2022-12-05T04:42:13;161.77;;;47.27;;
51866;SDS011;52862;52.504;13.480;2022-12-05T04:44:45;144.30;;;47.20;;
51866;SDS011;52862;52.504;13.480;2022-12-05T04:47:14;147.93;;;45.80;;
51866;SDS011;52862;52.504;13.480;2022-12-05T04:49:45;135.47;;;42.10;;
51866;SDS011;52862;52.504;13.480;2022-12-05T04:52:19;136.50;;;41.70;;
51866;SDS011;52862;52.504;13.480;2022-12-05T04:54:48;133.80;;;40.87;;
51866;SDS011;52862;52.504;13.480;2022-12-05T04:57:20;140.97;;;44.47;;
51866;SDS011;52862;52.504;13.480;2022-12-05T04:59:50;126.70;;;42.47;;
51866;SDS011;52862;52.504;13.480;2022-12-05T05:02:18;127.30;;;40.97;;
51866;SDS011;52862;52.504;13.480;2022-12-05T05:04:51;127.60;;;40.23;;
51866;SDS011;52862;52.504;13.480;2022-12-05T05:07:20;126.17;;;42.87;;
51866;SDS011;52862;52.504;13.480;2022-12-05T05:09:47;116.17;;;39.37;;
51866;SDS011;52862;52.504;13.480;2022-12-05T05:12:14;122.83;;;38.37;;
51866;SDS011;52862;52.504;13.480;2022-12-05T05:14:44;140.67;;;40.03;;
51866;SDS011;52862;52.504;13.480;2022-12-05T05:17:11;124.40;;;38.90;;
51866;SDS011;52862;52.504;13.480;2022-12-05T05:19:38;117.43;;;37.50;;
51866;SDS011;52862;52.504;13.480;2022-12-05T05:22:06;109.23;;;37.97;;
51866;SDS011;52862;52.504;13.480;2022-12-05T05:24:32;122.30;;;38.47;;
51866;SDS011;52862;52.504;13.480;2022-12-05T05:26:59;107.20;;;35.30;;
51866;SDS011;52862;52.504;13.480;2022-12-05T05:29:26;94.43;;;34.00;;
51866;SDS011;52862;52.504;13.480;2022-12-05T05:31:53;90.70;;;33.97;;
51866;SDS011;52862;52.504;13.480;2022-12-05T05:34:20;110.97;;;34.27;;
51866;SDS011;52862;52.504;13.480;2022-12-05T05:36:49;97.70;;;34.07;;
51866;SDS011;52862;52.504;13.480;2022-12-05T05:39:17;93.93;;;32.27;;
51866;SDS011;52862;52.504;13.480;2022-12-05T05:41:44;88.93;;;32.20;;
51866;SDS011;52862;52.504;13.480;2022-12-05T05:44:11;95.13;;;31.87;;
51866;SDS011;52862;52.504;13.480;2022-12-05T05:46:38;85.70;;;31.37;;
51866;SDS011;52862;52.504;13.480;2022-12-05T05:49:05;84.30;;;31.20;;
51866;SDS011;52862;52.504;13.480;2022-12-05T05:51:32;83.03;;;29.47;;
51866;SDS011;52862;52.504;13.480;2022-12-05T05:53:59;74.20;;;29.93;;
51866;SDS011;52862;52.504;13.480;2022-12-05T05:56:26;68.37;;;26.17;;
51866;SDS011;52862;52.504;13.480;2022-12-05T05:58:54;81.70;;;30.63;;
51866;SDS011;52862;52.504;13.480;2022-12-05T06:01:21;69.77;;;27.83;;
51866;SDS011;52862;52.504;13.480;2022-12-05T06:03:48;79.77;;;27.40;;
51866;SDS011;52862;52.504;13.480;2022-12-05T06:06:16;68.97;;;26.73;;
51866;SDS011;52862;52.504;13.480;2022-12-05T06:08:44;83.60;;;29.33;;
51866;SDS011;52862;52.504;13.480;2022-12-05T06:11:11;74.70;;;27.50;;
51866;SDS011;52862;52.504;13.480;2022-12-05T06:13:47;73.43;;;27.37;;
51866;SDS011;52862;52.504;13.480;2022-12-05T06:16:14;72.80;;;27.07;;
51866;SDS011;52862;52.504;13.480;2022-12-05T06:18:42;71.03;;;27.50;;
51866;SDS011;52862;52.504;13.480;2022-12-05T06:21:09;73.23;;;27.07;;
51866;SDS011;52862;52.504;13.480;2022-12-05T06:23:41;65.70;;;25.37;;
51866;SDS011;52862;52.504;13.480;2022-12-05T06:26:09;74.50;;;26.83;;
51866;SDS011;52862;52.504;13.480;2022-12-05T06:28:37;66.47;;;27.10;;
51866;SDS011;52862;52.504;13.480;2022-12-05T06:31:08;70.27;;;26.73;;
51866;SDS011;52862;52.504;13.480;2022-12-05T06:33:35;72.70;;;28.53;;
51866;SDS011;52862;52.504;13.480;2022-12-05T06:36:06;62.53;;;24.40;;
51866;SDS011;52862;52.504;13.480;2022-12-05T06:38:34;58.77;;;25.90;;
51866;SDS011;52862;52.504;13.480;2022-12-05T06:41:07;62.07;;;25.87;;
51866;SDS011;52862;52.504;13.480;2022-12-05T06:43:36;57.63;;;25.80;;
51866;SDS011;52862;52.504;13.480;2022-12-05T06:46:03;71.60;;;27.00;;
51866;SDS011;52862;52.504;13.480;2022-12-05T06:48:31;63.37;;;25.40;;
51866;SDS011;52862;52.504;13.480;2022-12-05T06:50:57;63.70;;;27.27;;
51866;SDS011;52862;52.504;13.480;2022-12-05T06:53:24;67.43;;;25.20;;
51866;SDS011;52862;52.504;13.480;2022-12-05T06:55:55;64.53;;;26.07;;
51866;SDS011;52862;52.504;13.480;2022-12-05T06:58:22;68.47;;;26.73;;
51866;SDS011;52862;52.504;13.480;2022-12-05T07:00:49;61.33;;;24.30;;
51866;SDS011;52862;52.504;13.480;2022-12-05T07:03:35;69.87;;;24.40;;
51866;SDS011;52862;52.504;13.480;2022-12-05T07:06:03;79.07;;;26.47;;
51866;SDS011;52862;52.504;13.480;2022-12-05T07:08:31;72.83;;;28.03;;
51866;SDS011;52862;52.504;13.480;2022-12-05T07:10:58;73.33;;;28.03;;
51866;SDS011;52862;52.504;13.480;2022-12-05T07:13:25;70.83;;;27.97;;
51866;SDS011;52862;52.504;13.480;2022-12-05T07:15:52;67.30;;;26.70;;
51866;SDS011;52862;52.504;13.480;2022-12-05T07:18:19;66.97;;;26.17;;
51866;SDS011;52862;52.504;13.480;2022-12-05T07:20:54;73.33;;;27.13;;
51866;SDS011;52862;52.504;13.480;2022-12-05T07:23:37;77.90;;;27.47;;
51866;SDS011;52862;52.504;13.480;2022-12-05T07:26:05;72.33;;;28.00;;
51866;SDS011;52862;52.504;13.480;2022-12-05T07:28:32;76.80;;;27.67;;
51866;SDS011;52862;52.504;13.480;2022-12-05T07:30:59;73.63;;;28.63;;
51866;SDS011;52862;52.504;13.480;2022-12-05T07:33:27;69.87;;;28.03;;
51866;SDS011;52862;52.504;13.480;2022-12-05T07:35:58;80.70;;;26.90;;
51866;SDS011;52862;52.504;13.480;2022-12-05T07:38:26;68.17;;;26.33;;
51866;SDS011;52862;52.504;13.480;2022-12-05T07:40:53;69.77;;;27.03;;
51866;SDS011;52862;52.504;13.480;2022-12-05T07:43:20;77.43;;;27.07;;
51866;SDS011;52862;52.504;13.480;2022-12-05T07:45:47;65.97;;;26.83;;
51866;SDS011;52862;52.504;13.480;2022-12-05T07:48:14;64.67;;;26.53;;
51866;SDS011;52862;52.504;13.480;2022-12-05T07:50:44;72.47;;;26.67;;
51866;SDS011;52862;52.504;13.480;2022-12-05T07:53:14;66.97;;;26.43;;
51866;SDS011;52862;52.504;13.480;2022-12-05T07:55:41;70.70;;;26.03;;
51866;SDS011;52862;52.504;13.480;2022-12-05T07:58:08;66.43;;;24.93;;
51866;SDS011;52862;52.504;13.480;2022-12-05T08:00:35;61.03;;;25.93;;
51866;SDS011;52862;52.504;13.480;2022-12-05T08:03:02;53.53;;;24.63;;
51866;SDS011;52862;52.504;13.480;2022-12-05T08:05:29;62.13;;;25.10;;
51866;SDS011;52862;52.504;13.480;2022-12-05T08:07:56;70.10;;;26.03;;
51866;SDS011;52862;52.504;13.480;2022-12-05T08:10:24;60.20;;;24.43;;
51866;SDS011;52862;52.504;13.480;2022-12-05T08:12:50;63.17;;;24.30;;
51866;SDS011;52862;52.504;13.480;2022-12-05T08:15:17;64.63;;;25.80;;
51866;SDS011;52862;52.504;13.480;2022-12-05T08:17:44;59.23;;;24.50;;
51866;SDS011;52862;52.504;13.480;2022-12-05T08:20:12;70.03;;;27.50;;
51866;SDS011;52862;52.504;13.480;2022-12-05T08:22:39;57.87;;;23.40;;
51866;SDS011;52862;52.504;13.480;2022-12-05T08:25:06;70.57;;;27.10;;
51866;SDS011;52862;52.504;13.480;2022-12-05T08:27:34;61.77;;;25.17;;
51866;SDS011;52862;52.504;13.480;2022-12-05T08:30:01;64.77;;;25.90;;
51866;SDS011;52862;52.504;13.480;2022-12-05T08:32:28;68.00;;;26.67;;
51866;SDS011;52862;52.504;13.480;2022-12-05T08:34:55;68.30;;;25.07;;
51866;SDS011;52862;52.504;13.480;2022-12-05T08:37:22;67.53;;;27.33;;
51866;SDS011;52862;52.504;13.480;2022-12-05T08:39:49;66.43;;;27.80;;
51866;SDS011;52862;52.504;13.480;2022-12-05T08:42:16;62.13;;;26.97;;
51866;SDS011;52862;52.504;13.480;2022-12-05T08:44:43;63.27;;;25.77;;
51866;SDS011;52862;52.504;13.480;2022-12-05T08:47:10;64.00;;;26.63;;
51866;SDS011;52862;52.504;13.480;2022-12-05T08:49:37;61.60;;;25.47;;
51866;SDS011;52862;52.504;13.480;2022-12-05T08:52:04;58.03;;;24.57;;
51866;SDS011;52862;52.504;13.480;2022-12-05T08:54:31;54.37;;;23.80;;
51866;SDS011;52862;52.504;13.480;2022-12-05T08:56:58;62.23;;;24.43;;
51866;SDS011;52862;52.504;13.480;2022-12-05T08:59:25;52.60;;;23.80;;
51866;SDS011;52862;52.504;13.480;2022-12-05T09:01:53;57.00;;;24.20;;
51866;SDS011;52862;52.504;13.480;2022-12-05T09:04:20;64.93;;;23.50;;
51866;SDS011;52862;52.504;13.480;2022-12-05T09:06:47;59.07;;;23.97;;
51866;SDS011;52862;52.504;13.480;2022-12-05T09:09:14;54.87;;;23.43;;
51866;SDS011;52862;52.504;13.480;2022-12-05T09:11:42;49.73;;;21.80;;
51866;SDS011;52862;52.504;13.480;2022-12-05T09:14:13;51.83;;;22.37;;
51866;SDS011;52862;52.504;13.480;2022-12-05T09:16:40;55.40;;;21.73;;
51866;SDS011;52862;52.504;13.480;2022-12-05T09:19:11;59.87;;;23.70;;
51866;SDS011;52862;52.504;13.480;2022-12-05T09:21:39;55.23;;;24.47;;
51866;SDS011;52862;52.504;13.480;2022-12-05T09:24:06;55.23;;;22.50;;
51866;SDS011;52862;52.504;13.480;2022-12-05T09:26:33;59.20;;;22.40;;
51866;SDS011;52862;52.504;13.480;2022-12-05T09:29:00;53.07;;;21.50;;
51866;SDS011;52862;52.504;13.480;2022-12-05T09:31:27;53.60;;;21.47;;
51866;SDS011;52862;52.504;13.480;2022-12-05T09:33:55;52.90;;;22.57;;
51866;SDS011;52862;52.504;13.480;2022-12-05T09:36:23;56.70;;;21.90;;
51866;SDS011;52862;52.504;13.480;2022-12-05T09:38:51;48.97;;;19.73;;
51866;SDS011;52862;52.504;13.480;2022-12-05T09:41:24;49.63;;;20.87;;
51866;SDS011;52862;52.504;13.480;2022-12-05T09:44:39;50.83;;;20.57;;
51866;SDS011;52862;52.504;13.480;2022-12-05T09:47:14;49.37;;;21.87;;
51866;SDS011;52862;52.504;13.480;2022-12-05T09:49:49;51.60;;;21.30;;
51866;SDS011;52862;52.504;13.480;2022-12-05T09:52:21;49.30;;;21.30;;
51866;SDS011;52862;52.504;13.480;2022-12-05T09:54:51;53.20;;;22.37;;
51866;SDS011;52862;52.504;13.480;2022-12-05T09:57:19;56.67;;;22.77;;
51866;SDS011;52862;52.504;13.480;2022-12-05T09:59:59;46.87;;;20.03;;
51866;SDS011;52862;52.504;13.480;2022-12-05T10:02:30;47.83;;;21.33;;
51866;SDS011;52862;52.504;13.480;2022-12-05T10:05:06;50.63;;;20.23;;
51866;SDS011;52862;52.504;13.480;2022-12-05T10:07:38;45.90;;;20.30;;
51866;SDS011;52862;52.504;13.480;2022-12-05T10:10:20;56.00;;;23.43;;
51866;SDS011;52862;52.504;13.480;2022-12-05T10:12:57;54.67;;;20.80;;
51866;SDS011;52862;52.504;13.480;2022-12-05T10:15:36;50.70;;;22.07;;
51866;SDS011;52862;52.504;13.480;2022-12-05T10:18:13;48.83;;;22.77;;
51866;SDS011;52862;52.504;13.480;2022-12-05T10:20:49;43.03;;;20.57;;
51866;SDS011;52862;52.504;13.480;2022-12-05T10:23:21;48.23;;;21.73;;
51866;SDS011;52862;52.504;13.480;2022-12-05T10:26:11;49.67;;;21.87;;
51866;SDS011;52862;52.504;13.480;2022-12-05T10:28:44;58.27;;;22.87;;
51866;SDS011;52862;52.504;13.480;2022-12-05T10:31:16;51.37;;;22.80;;
51866;SDS011;52862;52.504;13.480;2022-12-05T10:33:53;50.97;;;21.57;;
51866;SDS011;52862;52.504;13.480;2022-12-05T10:36:26;49.10;;;21.70;;
51866;SDS011;52862;52.504;13.480;2022-12-05T10:38:54;49.57;;;21.50;;
51866;SDS011;52862;52.504;13.480;2022-12-05T10:41:21;43.30;;;20.07;;
51866;SDS011;52862;52.504;13.480;2022-12-05T10:43:49;53.87;;;22.73;;
51866;SDS011;52862;52.504;13.480;2022-12-05T10:46:16;46.20;;;21.57;;
51866;SDS011;52862;52.504;13.480;2022-12-05T10:48:44;51.03;;;21.67;;
51866;SDS011;52862;52.504;13.480;2022-12-05T10:51:12;51.20;;;21.50;;
51866;SDS011;52862;52.504;13.480;2022-12-05T10:53:42;54.10;;;22.57;;
51866;SDS011;52862;52.504;13.480;2022-12-05T10:59:05;50.30;;;21.97;;
51866;SDS011;52862;52.504;13.480;2022-12-05T11:01:35;49.50;;;22.33;;
51866;SDS011;52862;52.504;13.480;2022-12-05T11:04:06;53.00;;;22.73;;
51866;SDS011;52862;52.504;13.480;2022-12-05T11:06:47;55.47;;;23.70;;
51866;SDS011;52862;52.504;13.480;2022-12-05T11:09:26;52.90;;;22.70;;
51866;SDS011;52862;52.504;13.480;2022-12-05T11:14:54;53.30;;;22.00;;
51866;SDS011;52862;52.504;13.480;2022-12-05T11:17:28;53.60;;;22.00;;
51866;SDS011;52862;52.504;13.480;2022-12-05T11:19:58;50.60;;;22.40;;
51866;SDS011;52862;52.504;13.480;2022-12-05T11:22:29;54.57;;;21.40;;
51866;SDS011;52862;52.504;13.480;2022-12-05T11:24:57;48.97;;;21.27;;
51866;SDS011;52862;52.504;13.480;2022-12-05T11:27:27;55.63;;;22.40;;
51866;SDS011;52862;52.504;13.480;2022-12-05T11:29:57;51.97;;;22.20;;
51866;SDS011;52862;52.504;13.480;2022-12-05T11:32:26;52.00;;;22.43;;
51866;SDS011;52862;52.504;13.480;2022-12-05T11:34:56;49.13;;;21.83;;
51866;SDS011;52862;52.504;13.480;2022-12-05T11:37:34;64.53;;;23.57;;
51866;SDS011;52862;52.504;13.480;2022-12-05T11:40:11;60.17;;;24.03;;
51866;SDS011;52862;52.504;13.480;2022-12-05T11:42:42;53.50;;;23.03;;
51866;SDS011;52862;52.504;13.480;2022-12-05T11:45:26;52.37;;;22.30;;
51866;SDS011;52862;52.504;13.480;2022-12-05T11:48:10;50.57;;;21.57;;
51866;SDS011;52862;52.504;13.480;2022-12-05T11:51:00;64.27;;;23.93;;
51866;SDS011;52862;52.504;13.480;2022-12-05T11:53:41;67.77;;;24.77;;
51866;SDS011;52862;52.504;13.480;2022-12-05T11:56:31;53.73;;;23.50;;
51866;SDS011;52862;52.504;13.480;2022-12-05T11:59:10;73.30;;;27.17;;
51866;SDS011;52862;52.504;13.480;2022-12-05T12:01:48;64.37;;;26.67;;
51866;SDS011;52862;52.504;13.480;2022-12-05T12:04:27;64.70;;;25.73;;
51866;SDS011;52862;52.504;13.480;2022-12-05T12:07:22;58.37;;;26.07;;
51866;SDS011;52862;52.504;13.480;2022-12-05T12:10:07;66.17;;;25.77;;
51866;SDS011;52862;52.504;13.480;2022-12-05T12:12:44;61.00;;;27.80;;
51866;SDS011;52862;52.504;13.480;2022-12-05T12:15:25;64.40;;;27.33;;
51866;SDS011;52862;52.504;13.480;2022-12-05T12:18:07;70.90;;;28.33;;
51866;SDS011;52862;52.504;13.480;2022-12-05T12:20:43;67.17;;;27.83;;
51866;SDS011;52862;52.504;13.480;2022-12-05T12:23:28;77.47;;;27.87;;
51866;SDS011;52862;52.504;13.480;2022-12-05T12:26:06;67.70;;;26.23;;
51866;SDS011;52862;52.504;13.480;2022-12-05T12:28:38;75.33;;;28.00;;
51866;SDS011;52862;52.504;13.480;2022-12-05T12:34:03;77.10;;;28.70;;
51866;SDS011;52862;52.504;13.480;2022-12-05T12:36:37;80.20;;;29.77;;
51866;SDS011;52862;52.504;13.480;2022-12-05T12:39:14;77.03;;;28.67;;
51866;SDS011;52862;52.504;13.480;2022-12-05T12:47:45;93.83;;;33.53;;
51866;SDS011;52862;52.504;13.480;2022-12-05T12:50:30;103.47;;;36.13;;
51866;SDS011;52862;52.504;13.480;2022-12-05T12:53:03;102.57;;;36.23;;
51866;SDS011;52862;52.504;13.480;2022-12-05T12:55:47;108.43;;;40.53;;
51866;SDS011;52862;52.504;13.480;2022-12-05T12:58:21;102.17;;;34.33;;
51866;SDS011;52862;52.504;13.480;2022-12-05T13:01:06;93.90;;;35.77;;
51866;SDS011;52862;52.504;13.480;2022-12-05T13:03:42;106.03;;;38.03;;
51866;SDS011;52862;52.504;13.480;2022-12-05T13:06:19;94.33;;;33.47;;
51866;SDS011;52862;52.504;13.480;2022-12-05T13:08:51;90.87;;;34.07;;
51866;SDS011;52862;52.504;13.480;2022-12-05T13:11:20;97.07;;;38.10;;
51866;SDS011;52862;52.504;13.480;2022-12-05T13:13:49;102.83;;;34.90;;
51866;SDS011;52862;52.504;13.480;2022-12-05T13:16:21;94.97;;;32.90;;
51866;SDS011;52862;52.504;13.480;2022-12-05T13:18:52;85.37;;;33.07;;
51866;SDS011;52862;52.504;13.480;2022-12-05T13:21:20;104.03;;;33.73;;
51866;SDS011;52862;52.504;13.480;2022-12-05T13:23:48;103.37;;;33.30;;
51866;SDS011;52862;52.504;13.480;2022-12-05T13:26:19;103.43;;;32.93;;
51866;SDS011;52862;52.504;13.480;2022-12-05T13:28:49;96.40;;;35.53;;
51866;SDS011;52862;52.504;13.480;2022-12-05T13:31:18;112.70;;;35.87;;
51866;SDS011;52862;52.504;13.480;2022-12-05T13:33:59;102.63;;;33.50;;
51866;SDS011;52862;52.504;13.480;2022-12-05T13:36:26;110.90;;;36.93;;
51866;SDS011;52862;52.504;13.480;2022-12-05T13:39:17;102.03;;;34.87;;
51866;SDS011;52862;52.504;13.480;2022-12-05T13:42:05;112.07;;;35.43;;
51866;SDS011;52862;52.504;13.480;2022-12-05T13:44:46;92.90;;;33.83;;
51866;SDS011;52862;52.504;13.480;2022-12-05T13:47:20;110.53;;;35.03;;
51866;SDS011;52862;52.504;13.480;2022-12-05T13:49:55;109.60;;;35.60;;
51866;SDS011;52862;52.504;13.480;2022-12-05T13:52:28;113.23;;;36.43;;
51866;SDS011;52862;52.504;13.480;2022-12-05T13:54:57;107.17;;;36.97;;
51866;SDS011;52862;52.504;13.480;2022-12-05T14:00:19;124.47;;;38.50;;
51866;SDS011;52862;52.504;13.480;2022-12-05T14:02:52;110.80;;;35.20;;
51866;SDS011;52862;52.504;13.480;2022-12-05T14:05:36;118.87;;;38.73;;
51866;SDS011;52862;52.504;13.480;2022-12-05T14:11:10;120.77;;;39.30;;
51866;SDS011;52862;52.504;13.480;2022-12-05T14:13:38;127.33;;;39.97;;
51866;SDS011;52862;52.504;13.480;2022-12-05T14:22:21;137.57;;;39.63;;
51866;SDS011;52862;52.504;13.480;2022-12-05T14:25:11;127.80;;;38.27;;
51866;SDS011;52862;52.504;13.480;2022-12-05T14:27:54;124.43;;;39.23;;
51866;SDS011;52862;52.504;13.480;2022-12-05T14:30:27;131.00;;;40.83;;
51866;SDS011;52862;52.504;13.480;2022-12-05T14:33:00;138.23;;;41.90;;
51866;SDS011;52862;52.504;13.480;2022-12-05T14:35:27;143.90;;;42.73;;
51866;SDS011;52862;52.504;13.480;2022-12-05T14:37:58;145.53;;;42.80;;
51866;SDS011;52862;52.504;13.480;2022-12-05T14:40:29;139.93;;;43.17;;
51866;SDS011;52862;52.504;13.480;2022-12-05T14:42:58;145.53;;;42.43;;
51866;SDS011;52862;52.504;13.480;2022-12-05T14:45:29;157.93;;;41.73;;
51866;SDS011;52862;52.504;13.480;2022-12-05T14:47:59;159.37;;;43.70;;
51866;SDS011;52862;52.504;13.480;2022-12-05T14:50:35;155.57;;;42.80;;
51866;SDS011;52862;52.504;13.480;2022-12-05T14:53:25;172.43;;;43.17;;
51866;SDS011;52862;52.504;13.480;2022-12-05T14:55:57;151.27;;;42.17;;
51866;SDS011;52862;52.504;13.480;2022-12-05T14:58:31;163.10;;;45.00;;
51866;SDS011;52862;52.504;13.480;2022-12-05T15:01:04;169.73;;;45.60;;
51866;SDS011;52862;52.504;13.480;2022-12-05T15:03:34;154.73;;;44.70;;